sensor_id;sensor_type;location;lat;lon;timestamp;temperature;humidity
19017;DHT22;9641;51.494;6.670;2024-03-23T00:54:48;6.20;99.90
19017;DHT22;9641;51.494;6.670;2024-03-23T00:57:14;6.20;99.90
19017;DHT22;9641;51.494;6.670;2024-03-23T00:59:41;6.10;99.90
19017;DHT22;9641;51.494;6.670;2024-03-23T01:02:06;6.10;99.90
19017;DHT22;9641;51.494;6.670;2024-03-23T01:04:33;6.20;99.90
19017;DHT22;9641;51.494;6.670;2024-03-23T01:07:00;6.20;99.90
19017;DHT22;9641;51.494;6.670;2024-03-23T01:09:27;6.20;99.90
19017;DHT22;9641;51.494;6.670;2024-03-23T01:11:53;6.20;99.90
19017;DHT22;9641;51.494;6.670;2024-03-23T01:14:20;6.20;99.90
19017;DHT22;9641;51.494;6.670;2024-03-23T01:16:49;6.40;99.90
19017;DHT22;9641;51.494;6.670;2024-03-23T01:19:16;6.50;99.90
19017;DHT22;9641;51.494;6.670;2024-03-23T01:21:41;6.40;99.90
19017;DHT22;9641;51.494;6.670;2024-03-23T01:24:10;6.40;99.90
19017;DHT22;9641;51.494;6.670;2024-03-23T01:26:36;6.60;99.90
19017;DHT22;9641;51.494;6.670;2024-03-23T01:29:03;6.60;99.90
19017;DHT22;9641;51.494;6.670;2024-03-23T01:31:29;6.60;99.90
19017;DHT22;9641;51.494;6.670;2024-03-23T01:33:56;6.60;99.90
19017;DHT22;9641;51.494;6.670;2024-03-23T01:36:22;6.60;99.90
19017;DHT22;9641;51.494;6.670;2024-03-23T01:38:49;6.60;99.90
19017;DHT22;9641;51.494;6.670;2024-03-23T01:41:16;6.50;99.90
19017;DHT22;9641;51.494;6.670;2024-03-23T01:43:43;6.50;99.90
19017;DHT22;9641;51.494;6.670;2024-03-23T01:46:09;6.50;99.90
19017;DHT22;9641;51.494;6.670;2024-03-23T01:48:36;6.40;99.90
19017;DHT22;9641;51.494;6.670;2024-03-23T01:51:02;6.40;99.90
19017;DHT22;9641;51.494;6.670;2024-03-23T01:53:30;6.40;99.90
19017;DHT22;9641;51.494;6.670;2024-03-23T01:55:56;6.30;99.90
19017;DHT22;9641;51.494;6.670;2024-03-23T01:58:25;6.40;99.90
19017;DHT22;9641;51.494;6.670;2024-03-23T02:00:51;6.50;99.90
19017;DHT22;9641;51.494;6.670;2024-03-23T02:03:25;6.40;99.90
19017;DHT22;9641;51.494;6.670;2024-03-23T02:05:52;6.50;99.90
19017;DHT22;9641;51.494;6.670;2024-03-23T02:08:21;6.40;99.90
19017;DHT22;9641;51.494;6.670;2024-03-23T02:10:47;6.30;99.90
19017;DHT22;9641;51.494;6.670;2024-03-23T02:13:14;6.30;99.90
19017;DHT22;9641;51.494;6.670;2024-03-23T02:15:42;6.30;99.90
19017;DHT22;9641;51.494;6.670;2024-03-23T02:18:08;6.30;99.90
19017;DHT22;9641;51.494;6.670;2024-03-23T02:20:34;6.20;99.90
19017;DHT22;9641;51.494;6.670;2024-03-23T02:23:03;6.10;99.90
19017;DHT22;9641;51.494;6.670;2024-03-23T02:25:29;6.10;99.90
19017;DHT22;9641;51.494;6.670;2024-03-23T02:27:55;6.00;99.90
19017;DHT22;9641;51.494;6.670;2024-03-23T02:30:21;6.10;99.90
19017;DHT22;9641;51.494;6.670;2024-03-23T02:32:48;6.30;99.90
19017;DHT22;9641;51.494;6.670;2024-03-23T02:35:17;6.30;99.90
19017;DHT22;9641;51.494;6.670;2024-03-23T02:37:46;6.30;99.90
19017;DHT22;9641;51.494;6.670;2024-03-23T02:40:13;6.20;99.90
19017;DHT22;9641;51.494;6.670;2024-03-23T02:42:40;6.20;99.90
19017;DHT22;9641;51.494;6.670;2024-03-23T02:45:07;6.20;99.90
19017;DHT22;9641;51.494;6.670;2024-03-23T02:47:33;6.20;99.90
19017;DHT22;9641;51.494;6.670;2024-03-23T02:49:59;6.30;99.90
19017;DHT22;9641;51.494;6.670;2024-03-23T02:52:26;6.20;99.90
19017;DHT22;9641;51.494;6.670;2024-03-23T02:54:52;6.20;99.90
19017;DHT22;9641;51.494;6.670;2024-03-23T02:57:20;6.20;99.90
19017;DHT22;9641;51.494;6.670;2024-03-23T02:59:46;6.30;99.90
19017;DHT22;9641;51.494;6.670;2024-03-23T03:02:14;6.20;99.90
19017;DHT22;9641;51.494;6.670;2024-03-23T03:04:40;6.20;99.90
19017;DHT22;9641;51.494;6.670;2024-03-23T03:07:07;6.30;99.90
19017;DHT22;9641;51.494;6.670;2024-03-23T03:09:33;6.20;99.90
19017;DHT22;9641;51.494;6.670;2024-03-23T03:12:01;6.20;99.90
19017;DHT22;9641;51.494;6.670;2024-03-23T03:14:28;6.30;99.90
19017;DHT22;9641;51.494;6.670;2024-03-23T03:16:55;6.30;99.90
19017;DHT22;9641;51.494;6.670;2024-03-23T03:19:21;6.30;99.90
19017;DHT22;9641;51.494;6.670;2024-03-23T03:21:48;6.30;99.90
19017;DHT22;9641;51.494;6.670;2024-03-23T03:24:15;6.30;99.90
19017;DHT22;9641;51.494;6.670;2024-03-23T03:26:42;6.40;99.90
19017;DHT22;9641;51.494;6.670;2024-03-23T03:29:08;6.30;99.90
19017;DHT22;9641;51.494;6.670;2024-03-23T03:31:36;6.20;99.90
19017;DHT22;9641;51.494;6.670;2024-03-23T03:34:02;6.20;99.90
19017;DHT22;9641;51.494;6.670;2024-03-23T03:36:29;6.20;99.90
19017;DHT22;9641;51.494;6.670;2024-03-23T03:38:55;6.10;99.90
19017;DHT22;9641;51.494;6.670;2024-03-23T03:41:22;6.10;99.90
19017;DHT22;9641;51.494;6.670;2024-03-23T03:43:47;6.10;99.90
19017;DHT22;9641;51.494;6.670;2024-03-23T03:46:14;6.10;99.90
19017;DHT22;9641;51.494;6.670;2024-03-23T03:48:41;6.10;99.90
19017;DHT22;9641;51.494;6.670;2024-03-23T03:51:10;6.10;99.90
19017;DHT22;9641;51.494;6.670;2024-03-23T03:53:36;6.10;99.90
19017;DHT22;9641;51.494;6.670;2024-03-23T03:56:03;6.10;99.90
19017;DHT22;9641;51.494;6.670;2024-03-23T03:58:29;6.20;99.90
19017;DHT22;9641;51.494;6.670;2024-03-23T04:00:58;6.10;99.90
19017;DHT22;9641;51.494;6.670;2024-03-23T04:03:24;6.10;99.90
19017;DHT22;9641;51.494;6.670;2024-03-23T04:05:53;6.10;99.90
19017;DHT22;9641;51.494;6.670;2024-03-23T04:08:19;6.10;99.90
19017;DHT22;9641;51.494;6.670;2024-03-23T04:10:46;6.10;99.90
19017;DHT22;9641;51.494;6.670;2024-03-23T04:13:12;6.00;99.90
19017;DHT22;9641;51.494;6.670;2024-03-23T04:15:39;6.00;99.90
19017;DHT22;9641;51.494;6.670;2024-03-23T04:18:05;6.00;99.90
19017;DHT22;9641;51.494;6.670;2024-03-23T04:20:33;6.00;99.90
19017;DHT22;9641;51.494;6.670;2024-03-23T04:23:00;6.00;99.90
19017;DHT22;9641;51.494;6.670;2024-03-23T04:25:27;6.00;99.90
19017;DHT22;9641;51.494;6.670;2024-03-23T04:27:53;6.00;99.90
19017;DHT22;9641;51.494;6.670;2024-03-23T04:30:20;6.10;99.90
19017;DHT22;9641;51.494;6.670;2024-03-23T04:32:46;6.00;99.90
19017;DHT22;9641;51.494;6.670;2024-03-23T04:35:13;6.00;99.90
19017;DHT22;9641;51.494;6.670;2024-03-23T04:37:39;6.10;99.90
19017;DHT22;9641;51.494;6.670;2024-03-23T04:40:09;6.10;99.90
19017;DHT22;9641;51.494;6.670;2024-03-23T04:42:37;6.20;99.90
19017;DHT22;9641;51.494;6.670;2024-03-23T04:45:05;6.10;99.90
19017;DHT22;9641;51.494;6.670;2024-03-23T04:47:32;6.10;99.90
19017;DHT22;9641;51.494;6.670;2024-03-23T04:49:58;6.20;99.90
19017;DHT22;9641;51.494;6.670;2024-03-23T04:52:27;6.20;99.90
19017;DHT22;9641;51.494;6.670;2024-03-23T04:54:53;6.20;99.90
19017;DHT22;9641;51.494;6.670;2024-03-23T04:57:21;6.20;99.90
19017;DHT22;9641;51.494;6.670;2024-03-23T04:59:48;6.10;99.90
19017;DHT22;9641;51.494;6.670;2024-03-23T05:02:14;6.10;99.90
19017;DHT22;9641;51.494;6.670;2024-03-23T05:04:41;6.10;99.90
19017;DHT22;9641;51.494;6.670;2024-03-23T05:07:07;6.10;99.90
19017;DHT22;9641;51.494;6.670;2024-03-23T05:09:34;6.10;99.90
19017;DHT22;9641;51.494;6.670;2024-03-23T05:12:00;6.10;99.90
19017;DHT22;9641;51.494;6.670;2024-03-23T05:14:29;6.10;99.90
19017;DHT22;9641;51.494;6.670;2024-03-23T05:16:55;6.10;99.90
19017;DHT22;9641;51.494;6.670;2024-03-23T05:19:22;6.10;99.90
19017;DHT22;9641;51.494;6.670;2024-03-23T05:21:48;6.10;99.90
19017;DHT22;9641;51.494;6.670;2024-03-23T05:24:15;6.10;99.90
19017;DHT22;9641;51.494;6.670;2024-03-23T05:26:40;6.10;99.90
19017;DHT22;9641;51.494;6.670;2024-03-23T05:29:07;6.10;99.90
19017;DHT22;9641;51.494;6.670;2024-03-23T05:31:37;6.10;99.90
19017;DHT22;9641;51.494;6.670;2024-03-23T05:34:06;6.10;99.90
19017;DHT22;9641;51.494;6.670;2024-03-23T05:36:32;6.10;99.90
19017;DHT22;9641;51.494;6.670;2024-03-23T05:38:59;6.10;99.90
19017;DHT22;9641;51.494;6.670;2024-03-23T05:41:28;6.10;99.90
19017;DHT22;9641;51.494;6.670;2024-03-23T05:43:58;6.10;99.90
19017;DHT22;9641;51.494;6.670;2024-03-23T05:46:23;6.10;99.90
19017;DHT22;9641;51.494;6.670;2024-03-23T05:48:52;6.00;99.90
19017;DHT22;9641;51.494;6.670;2024-03-23T05:51:26;6.00;99.90
19017;DHT22;9641;51.494;6.670;2024-03-23T05:53:53;5.90;99.90
19017;DHT22;9641;51.494;6.670;2024-03-23T05:56:19;5.90;99.90
19017;DHT22;9641;51.494;6.670;2024-03-23T05:58:47;5.80;99.90
19017;DHT22;9641;51.494;6.670;2024-03-23T06:01:14;5.80;99.90
19017;DHT22;9641;51.494;6.670;2024-03-23T06:03:41;5.80;99.90
19017;DHT22;9641;51.494;6.670;2024-03-23T06:06:11;5.80;99.90
19017;DHT22;9641;51.494;6.670;2024-03-23T06:08:38;5.70;99.90
19017;DHT22;9641;51.494;6.670;2024-03-23T06:11:05;5.70;99.90
19017;DHT22;9641;51.494;6.670;2024-03-23T06:13:33;5.80;99.90
19017;DHT22;9641;51.494;6.670;2024-03-23T06:15:59;5.80;99.90
19017;DHT22;9641;51.494;6.670;2024-03-23T06:18:26;5.70;99.90
19017;DHT22;9641;51.494;6.670;2024-03-23T06:20:53;5.70;99.90
19017;DHT22;9641;51.494;6.670;2024-03-23T06:23:22;5.80;99.90
19017;DHT22;9641;51.494;6.670;2024-03-23T06:25:47;5.70;99.90
19017;DHT22;9641;51.494;6.670;2024-03-23T06:28:14;5.80;99.90
19017;DHT22;9641;51.494;6.670;2024-03-23T06:30:41;5.80;99.90
19017;DHT22;9641;51.494;6.670;2024-03-23T06:33:08;5.80;99.90
19017;DHT22;9641;51.494;6.670;2024-03-23T06:35:34;5.80;99.90
19017;DHT22;9641;51.494;6.670;2024-03-23T06:38:01;5.90;99.90
19017;DHT22;9641;51.494;6.670;2024-03-23T06:40:28;5.90;99.90
19017;DHT22;9641;51.494;6.670;2024-03-23T06:42:55;6.00;99.90
19017;DHT22;9641;51.494;6.670;2024-03-23T06:45:22;6.00;99.90
19017;DHT22;9641;51.494;6.670;2024-03-23T06:47:49;6.00;99.90
19017;DHT22;9641;51.494;6.670;2024-03-23T06:50:16;6.10;99.90
19017;DHT22;9641;51.494;6.670;2024-03-23T06:52:43;6.10;99.90
19017;DHT22;9641;51.494;6.670;2024-03-23T06:55:09;6.20;99.90
19017;DHT22;9641;51.494;6.670;2024-03-23T06:57:37;6.20;99.90
19017;DHT22;9641;51.494;6.670;2024-03-23T07:00:05;6.20;99.90
19017;DHT22;9641;51.494;6.670;2024-03-23T07:02:35;6.30;99.90
19017;DHT22;9641;51.494;6.670;2024-03-23T07:05:02;6.40;99.90
19017;DHT22;9641;51.494;6.670;2024-03-23T07:07:30;6.50;99.90
19017;DHT22;9641;51.494;6.670;2024-03-23T07:09:56;6.40;99.90
19017;DHT22;9641;51.494;6.670;2024-03-23T07:12:23;6.50;99.90
19017;DHT22;9641;51.494;6.670;2024-03-23T07:14:51;6.50;99.90
19017;DHT22;9641;51.494;6.670;2024-03-23T07:17:19;6.60;99.90
19017;DHT22;9641;51.494;6.670;2024-03-23T07:19:46;6.60;99.90
19017;DHT22;9641;51.494;6.670;2024-03-23T07:22:13;6.70;99.90
19017;DHT22;9641;51.494;6.670;2024-03-23T07:24:40;6.70;99.90
19017;DHT22;9641;51.494;6.670;2024-03-23T07:27:08;6.80;99.90
19017;DHT22;9641;51.494;6.670;2024-03-23T07:29:35;6.90;99.90
19017;DHT22;9641;51.494;6.670;2024-03-23T07:32:04;6.90;99.90
19017;DHT22;9641;51.494;6.670;2024-03-23T07:34:30;6.90;99.90
19017;DHT22;9641;51.494;6.670;2024-03-23T07:36:57;6.90;99.90
19017;DHT22;9641;51.494;6.670;2024-03-23T07:39:23;7.00;99.90
19017;DHT22;9641;51.494;6.670;2024-03-23T07:41:53;7.10;99.90
19017;DHT22;9641;51.494;6.670;2024-03-23T07:44:20;7.20;99.90
19017;DHT22;9641;51.494;6.670;2024-03-23T07:46:47;7.20;99.90
19017;DHT22;9641;51.494;6.670;2024-03-23T07:49:14;7.30;99.90
19017;DHT22;9641;51.494;6.670;2024-03-23T07:51:41;7.30;99.90
19017;DHT22;9641;51.494;6.670;2024-03-23T07:54:07;7.40;99.90
19017;DHT22;9641;51.494;6.670;2024-03-23T07:56:34;7.50;99.90
19017;DHT22;9641;51.494;6.670;2024-03-23T07:59:01;7.50;99.90
19017;DHT22;9641;51.494;6.670;2024-03-23T08:01:29;7.60;99.90
19017;DHT22;9641;51.494;6.670;2024-03-23T08:03:55;7.60;99.90
19017;DHT22;9641;51.494;6.670;2024-03-23T08:06:23;7.70;99.90
19017;DHT22;9641;51.494;6.670;2024-03-23T08:08:54;7.90;99.90
19017;DHT22;9641;51.494;6.670;2024-03-23T08:11:25;8.00;99.90
19017;DHT22;9641;51.494;6.670;2024-03-23T08:13:51;8.10;99.90
19017;DHT22;9641;51.494;6.670;2024-03-23T08:16:18;8.30;99.90
19017;DHT22;9641;51.494;6.670;2024-03-23T08:18:44;8.60;99.90
19017;DHT22;9641;51.494;6.670;2024-03-23T08:21:11;8.70;99.90
19017;DHT22;9641;51.494;6.670;2024-03-23T08:23:39;8.60;99.90
19017;DHT22;9641;51.494;6.670;2024-03-23T08:26:07;8.60;99.90
19017;DHT22;9641;51.494;6.670;2024-03-23T08:28:34;8.50;99.90
19017;DHT22;9641;51.494;6.670;2024-03-23T08:31:03;8.50;99.90
19017;DHT22;9641;51.494;6.670;2024-03-23T08:33:31;8.40;99.90
19017;DHT22;9641;51.494;6.670;2024-03-23T08:35:59;8.40;99.90
19017;DHT22;9641;51.494;6.670;2024-03-23T08:38:26;8.40;99.90
19017;DHT22;9641;51.494;6.670;2024-03-23T08:40:58;8.30;99.90
19017;DHT22;9641;51.494;6.670;2024-03-23T08:43:24;8.20;99.90
19017;DHT22;9641;51.494;6.670;2024-03-23T08:45:52;8.30;99.90
19017;DHT22;9641;51.494;6.670;2024-03-23T08:48:19;8.40;99.90
19017;DHT22;9641;51.494;6.670;2024-03-23T08:50:46;8.40;99.90
19017;DHT22;9641;51.494;6.670;2024-03-23T08:53:12;8.40;99.90
19017;DHT22;9641;51.494;6.670;2024-03-23T08:55:39;8.50;99.90
19017;DHT22;9641;51.494;6.670;2024-03-23T08:58:07;8.60;99.90
19017;DHT22;9641;51.494;6.670;2024-03-23T09:00:35;8.60;99.90
19017;DHT22;9641;51.494;6.670;2024-03-23T09:03:03;8.60;99.90
19017;DHT22;9641;51.494;6.670;2024-03-23T09:05:30;8.30;99.90
19017;DHT22;9641;51.494;6.670;2024-03-23T09:08:02;8.20;99.90
19017;DHT22;9641;51.494;6.670;2024-03-23T09:10:30;8.30;99.90
19017;DHT22;9641;51.494;6.670;2024-03-23T09:12:56;8.60;99.90
19017;DHT22;9641;51.494;6.670;2024-03-23T09:15:25;8.90;99.90
19017;DHT22;9641;51.494;6.670;2024-03-23T09:17:50;8.80;99.90
19017;DHT22;9641;51.494;6.670;2024-03-23T09:20:18;8.60;99.90
19017;DHT22;9641;51.494;6.670;2024-03-23T09:22:44;8.70;99.90
19017;DHT22;9641;51.494;6.670;2024-03-23T09:25:11;8.80;99.90
19017;DHT22;9641;51.494;6.670;2024-03-23T09:27:36;9.00;99.90
19017;DHT22;9641;51.494;6.670;2024-03-23T09:30:05;9.10;99.90
19017;DHT22;9641;51.494;6.670;2024-03-23T09:32:33;9.30;99.90
19017;DHT22;9641;51.494;6.670;2024-03-23T09:35:00;9.60;99.90
19017;DHT22;9641;51.494;6.670;2024-03-23T09:37:27;9.50;1.00
19017;DHT22;9641;51.494;6.670;2024-03-23T09:39:54;9.50;9.10
19017;DHT22;9641;51.494;6.670;2024-03-23T09:42:20;9.70;1.00
19017;DHT22;9641;51.494;6.670;2024-03-23T09:44:48;9.60;1.00
19017;DHT22;9641;51.494;6.670;2024-03-23T09:47:16;9.60;1.00
19017;DHT22;9641;51.494;6.670;2024-03-23T09:49:45;9.60;1.00
19017;DHT22;9641;51.494;6.670;2024-03-23T09:52:12;10.00;1.00
19017;DHT22;9641;51.494;6.670;2024-03-23T09:54:38;10.40;1.00
19017;DHT22;9641;51.494;6.670;2024-03-23T09:57:05;10.40;55.30
19017;DHT22;9641;51.494;6.670;2024-03-23T09:59:33;10.40;1.00
19017;DHT22;9641;51.494;6.670;2024-03-23T10:02:01;10.40;62.10
19017;DHT22;9641;51.494;6.670;2024-03-23T10:04:36;10.50;1.00
19017;DHT22;9641;51.494;6.670;2024-03-23T10:07:12;10.30;99.90
19017;DHT22;9641;51.494;6.670;2024-03-23T10:09:38;9.90;99.90
19017;DHT22;9641;51.494;6.670;2024-03-23T10:12:10;9.70;1.00
19017;DHT22;9641;51.494;6.670;2024-03-23T10:14:39;9.90;99.90
19017;DHT22;9641;51.494;6.670;2024-03-23T10:17:17;10.10;63.80
19017;DHT22;9641;51.494;6.670;2024-03-23T10:19:44;10.20;1.00
19017;DHT22;9641;51.494;6.670;2024-03-23T10:22:14;10.50;97.80
19017;DHT22;9641;51.494;6.670;2024-03-23T10:24:41;10.50;99.90
19017;DHT22;9641;51.494;6.670;2024-03-23T10:27:07;10.40;1.00
19017;DHT22;9641;51.494;6.670;2024-03-23T10:29:34;10.10;99.90
19017;DHT22;9641;51.494;6.670;2024-03-23T10:32:10;9.70;99.90
19017;DHT22;9641;51.494;6.670;2024-03-23T10:34:39;9.10;1.00
19017;DHT22;9641;51.494;6.670;2024-03-23T10:37:06;8.50;19.60
19017;DHT22;9641;51.494;6.670;2024-03-23T10:39:35;8.10;99.90
19017;DHT22;9641;51.494;6.670;2024-03-23T10:42:06;7.80;1.00
19017;DHT22;9641;51.494;6.670;2024-03-23T10:44:34;7.80;1.00
19017;DHT22;9641;51.494;6.670;2024-03-23T10:47:01;8.00;1.00
19017;DHT22;9641;51.494;6.670;2024-03-23T10:49:30;7.90;99.90
19017;DHT22;9641;51.494;6.670;2024-03-23T10:51:57;7.90;99.90
19017;DHT22;9641;51.494;6.670;2024-03-23T10:54:25;8.00;1.00
19017;DHT22;9641;51.494;6.670;2024-03-23T10:56:57;8.10;99.90
19017;DHT22;9641;51.494;6.670;2024-03-23T10:59:26;8.30;1.00
19017;DHT22;9641;51.494;6.670;2024-03-23T11:01:56;8.20;1.00
19017;DHT22;9641;51.494;6.670;2024-03-23T11:04:30;8.60;1.00
19017;DHT22;9641;51.494;6.670;2024-03-23T11:06:57;9.50;1.00
19017;DHT22;9641;51.494;6.670;2024-03-23T11:09:40;10.60;1.00
19017;DHT22;9641;51.494;6.670;2024-03-23T11:12:27;10.60;99.90
19017;DHT22;9641;51.494;6.670;2024-03-23T11:14:59;9.90;1.00
19017;DHT22;9641;51.494;6.670;2024-03-23T11:17:27;10.00;1.00
19017;DHT22;9641;51.494;6.670;2024-03-23T11:19:55;10.30;99.90
19017;DHT22;9641;51.494;6.670;2024-03-23T11:22:42;10.60;99.90
19017;DHT22;9641;51.494;6.670;2024-03-23T11:25:19;11.90;1.00
19017;DHT22;9641;51.494;6.670;2024-03-23T11:27:49;12.40;1.00
19017;DHT22;9641;51.494;6.670;2024-03-23T11:30:18;12.40;1.00
19017;DHT22;9641;51.494;6.670;2024-03-23T11:32:45;12.60;1.00
19017;DHT22;9641;51.494;6.670;2024-03-23T11:35:28;13.40;1.00
19017;DHT22;9641;51.494;6.670;2024-03-23T11:38:04;13.10;1.00
19017;DHT22;9641;51.494;6.670;2024-03-23T11:40:32;13.30;1.00
19017;DHT22;9641;51.494;6.670;2024-03-23T11:43:00;13.10;1.00
19017;DHT22;9641;51.494;6.670;2024-03-23T11:45:29;12.80;1.00
19017;DHT22;9641;51.494;6.670;2024-03-23T11:48:06;12.80;99.90
19017;DHT22;9641;51.494;6.670;2024-03-23T11:50:34;12.10;99.90
19017;DHT22;9641;51.494;6.670;2024-03-23T11:53:14;10.90;99.90
19017;DHT22;9641;51.494;6.670;2024-03-23T11:55:45;10.20;99.90
19017;DHT22;9641;51.494;6.670;2024-03-23T11:58:14;9.80;1.00
19017;DHT22;9641;51.494;6.670;2024-03-23T12:00:42;9.60;1.00
19017;DHT22;9641;51.494;6.670;2024-03-23T12:03:08;9.60;1.00
19017;DHT22;9641;51.494;6.670;2024-03-23T12:05:36;9.90;1.00
19017;DHT22;9641;51.494;6.670;2024-03-23T12:08:20;11.30;99.90
19017;DHT22;9641;51.494;6.670;2024-03-23T12:10:49;13.40;99.90
19017;DHT22;9641;51.494;6.670;2024-03-23T12:13:21;12.80;99.90
19017;DHT22;9641;51.494;6.670;2024-03-23T12:15:50;12.40;99.90
19017;DHT22;9641;51.494;6.670;2024-03-23T12:18:16;13.70;99.90
19017;DHT22;9641;51.494;6.670;2024-03-23T12:20:43;14.20;24.80
19017;DHT22;9641;51.494;6.670;2024-03-23T12:23:11;13.70;1.00
19017;DHT22;9641;51.494;6.670;2024-03-23T12:25:42;13.50;1.00
19017;DHT22;9641;51.494;6.670;2024-03-23T12:28:08;12.40;1.00
19017;DHT22;9641;51.494;6.670;2024-03-23T12:30:39;11.70;4.30
19017;DHT22;9641;51.494;6.670;2024-03-23T12:33:05;11.00;99.90
19017;DHT22;9641;51.494;6.670;2024-03-23T12:35:32;10.40;1.00
19017;DHT22;9641;51.494;6.670;2024-03-23T12:37:58;10.10;1.00
19017;DHT22;9641;51.494;6.670;2024-03-23T12:40:26;9.30;1.00
19017;DHT22;9641;51.494;6.670;2024-03-23T12:42:52;8.40;99.90
19017;DHT22;9641;51.494;6.670;2024-03-23T12:45:19;7.60;99.90
19017;DHT22;9641;51.494;6.670;2024-03-23T12:47:46;7.20;99.90
19017;DHT22;9641;51.494;6.670;2024-03-23T12:50:14;6.90;99.90
19017;DHT22;9641;51.494;6.670;2024-03-23T12:52:39;6.90;99.90
19017;DHT22;9641;51.494;6.670;2024-03-23T12:55:07;6.90;99.90
19017;DHT22;9641;51.494;6.670;2024-03-23T12:57:33;6.80;99.90
19017;DHT22;9641;51.494;6.670;2024-03-23T13:00:00;6.70;99.90
19017;DHT22;9641;51.494;6.670;2024-03-23T13:02:26;6.60;99.90
19017;DHT22;9641;51.494;6.670;2024-03-23T13:04:55;6.60;99.90
19017;DHT22;9641;51.494;6.670;2024-03-23T13:07:23;6.50;99.90
19017;DHT22;9641;51.494;6.670;2024-03-23T13:09:53;6.50;99.90
19017;DHT22;9641;51.494;6.670;2024-03-23T13:12:19;6.60;99.90
19017;DHT22;9641;51.494;6.670;2024-03-23T13:14:46;6.70;99.90
19017;DHT22;9641;51.494;6.670;2024-03-23T13:17:12;6.40;99.90
19017;DHT22;9641;51.494;6.670;2024-03-23T13:19:39;5.40;99.90
19017;DHT22;9641;51.494;6.670;2024-03-23T13:22:06;5.30;99.90
19017;DHT22;9641;51.494;6.670;2024-03-23T13:24:34;5.50;99.90
19017;DHT22;9641;51.494;6.670;2024-03-23T13:26:59;6.00;99.90
19017;DHT22;9641;51.494;6.670;2024-03-23T13:29:26;6.40;99.90
19017;DHT22;9641;51.494;6.670;2024-03-23T13:31:52;6.60;99.90
19017;DHT22;9641;51.494;6.670;2024-03-23T13:34:19;6.60;99.90
19017;DHT22;9641;51.494;6.670;2024-03-23T13:36:46;6.50;99.90
19017;DHT22;9641;51.494;6.670;2024-03-23T13:39:15;6.70;99.90
19017;DHT22;9641;51.494;6.670;2024-03-23T13:41:42;7.20;99.90
19017;DHT22;9641;51.494;6.670;2024-03-23T13:44:09;8.30;99.90
19017;DHT22;9641;51.494;6.670;2024-03-23T13:46:36;10.00;99.90
19017;DHT22;9641;51.494;6.670;2024-03-23T13:49:04;11.60;99.90
19017;DHT22;9641;51.494;6.670;2024-03-23T13:51:30;12.10;1.00
19017;DHT22;9641;51.494;6.670;2024-03-23T13:53:57;12.70;1.00
19017;DHT22;9641;51.494;6.670;2024-03-23T13:56:27;13.30;1.00
19017;DHT22;9641;51.494;6.670;2024-03-23T13:58:55;14.20;1.00
19017;DHT22;9641;51.494;6.670;2024-03-23T14:01:21;14.40;99.90
19017;DHT22;9641;51.494;6.670;2024-03-23T14:03:48;13.40;1.00
19017;DHT22;9641;51.494;6.670;2024-03-23T14:06:15;12.40;1.00
19017;DHT22;9641;51.494;6.670;2024-03-23T14:08:42;11.60;99.90
19017;DHT22;9641;51.494;6.670;2024-03-23T14:11:09;11.30;99.90
19017;DHT22;9641;51.494;6.670;2024-03-23T14:13:37;10.80;1.00
19017;DHT22;9641;51.494;6.670;2024-03-23T14:16:04;10.30;1.00
19017;DHT22;9641;51.494;6.670;2024-03-23T14:18:31;9.80;99.90
19017;DHT22;9641;51.494;6.670;2024-03-23T14:20:58;10.70;99.90
19017;DHT22;9641;51.494;6.670;2024-03-23T14:23:25;12.70;1.00
19017;DHT22;9641;51.494;6.670;2024-03-23T14:25:53;14.10;78.20
19017;DHT22;9641;51.494;6.670;2024-03-23T14:28:20;14.50;1.00
19017;DHT22;9641;51.494;6.670;2024-03-23T14:30:49;14.70;1.00
19017;DHT22;9641;51.494;6.670;2024-03-23T14:33:16;13.70;1.00
19017;DHT22;9641;51.494;6.670;2024-03-23T14:35:42;12.50;1.00
19017;DHT22;9641;51.494;6.670;2024-03-23T14:38:09;11.80;1.00
19017;DHT22;9641;51.494;6.670;2024-03-23T14:40:35;11.20;1.00
19017;DHT22;9641;51.494;6.670;2024-03-23T14:43:02;10.50;1.00
19017;DHT22;9641;51.494;6.670;2024-03-23T14:45:28;10.30;22.70
19017;DHT22;9641;51.494;6.670;2024-03-23T14:47:56;10.30;4.70
19017;DHT22;9641;51.494;6.670;2024-03-23T14:50:23;10.30;99.90
19017;DHT22;9641;51.494;6.670;2024-03-23T14:52:50;10.10;99.90
19017;DHT22;9641;51.494;6.670;2024-03-23T14:55:17;10.40;99.90
19017;DHT22;9641;51.494;6.670;2024-03-23T14:57:45;11.90;96.10
19017;DHT22;9641;51.494;6.670;2024-03-23T15:00:12;12.40;1.00
19017;DHT22;9641;51.494;6.670;2024-03-23T15:02:38;12.80;1.00
19017;DHT22;9641;51.494;6.670;2024-03-23T15:05:07;12.90;1.00
19017;DHT22;9641;51.494;6.670;2024-03-23T15:07:35;13.70;1.00
19017;DHT22;9641;51.494;6.670;2024-03-23T15:10:03;14.50;1.00
19017;DHT22;9641;51.494;6.670;2024-03-23T15:12:30;14.50;1.00
19017;DHT22;9641;51.494;6.670;2024-03-23T15:14:58;14.50;1.00
19017;DHT22;9641;51.494;6.670;2024-03-23T15:17:24;14.40;1.00
19017;DHT22;9641;51.494;6.670;2024-03-23T15:19:51;13.70;1.00
19017;DHT22;9641;51.494;6.670;2024-03-23T15:22:19;12.70;1.00
19017;DHT22;9641;51.494;6.670;2024-03-23T15:24:46;12.90;1.00
19017;DHT22;9641;51.494;6.670;2024-03-23T15:27:11;13.30;1.00
19017;DHT22;9641;51.494;6.670;2024-03-23T15:29:38;14.30;1.00
19017;DHT22;9641;51.494;6.670;2024-03-23T15:32:04;14.60;1.00
19017;DHT22;9641;51.494;6.670;2024-03-23T15:34:31;14.90;1.00
19017;DHT22;9641;51.494;6.670;2024-03-23T15:36:57;15.00;1.00
19017;DHT22;9641;51.494;6.670;2024-03-23T15:39:26;14.00;1.00
19017;DHT22;9641;51.494;6.670;2024-03-23T15:41:51;13.50;1.00
19017;DHT22;9641;51.494;6.670;2024-03-23T15:44:20;12.90;1.00
19017;DHT22;9641;51.494;6.670;2024-03-23T15:46:46;11.70;1.00
19017;DHT22;9641;51.494;6.670;2024-03-23T15:49:13;11.00;1.00
19017;DHT22;9641;51.494;6.670;2024-03-23T15:51:41;10.70;1.00
19017;DHT22;9641;51.494;6.670;2024-03-23T15:54:09;10.60;99.90
19017;DHT22;9641;51.494;6.670;2024-03-23T15:56:37;11.50;99.90
19017;DHT22;9641;51.494;6.670;2024-03-23T15:59:04;12.20;1.00
19017;DHT22;9641;51.494;6.670;2024-03-23T16:01:32;13.20;1.00
19017;DHT22;9641;51.494;6.670;2024-03-23T16:04:00;14.00;1.00
19017;DHT22;9641;51.494;6.670;2024-03-23T16:06:27;14.70;1.00
19017;DHT22;9641;51.494;6.670;2024-03-23T16:08:54;14.60;1.00
19017;DHT22;9641;51.494;6.670;2024-03-23T16:11:20;13.90;1.00
19017;DHT22;9641;51.494;6.670;2024-03-23T16:13:49;14.00;1.00
19017;DHT22;9641;51.494;6.670;2024-03-23T16:16:15;12.90;1.00
19017;DHT22;9641;51.494;6.670;2024-03-23T16:18:42;12.30;1.00
19017;DHT22;9641;51.494;6.670;2024-03-23T16:21:10;11.90;1.00
19017;DHT22;9641;51.494;6.670;2024-03-23T16:23:40;11.10;1.00
19017;DHT22;9641;51.494;6.670;2024-03-23T16:26:07;10.40;1.00
19017;DHT22;9641;51.494;6.670;2024-03-23T16:28:36;9.90;1.00
19017;DHT22;9641;51.494;6.670;2024-03-23T16:31:05;9.50;99.90
19017;DHT22;9641;51.494;6.670;2024-03-23T16:33:33;9.20;1.00
19017;DHT22;9641;51.494;6.670;2024-03-23T16:36:00;8.60;99.90
19017;DHT22;9641;51.494;6.670;2024-03-23T16:38:28;8.30;1.00
19017;DHT22;9641;51.494;6.670;2024-03-23T16:40:58;8.20;99.90
19017;DHT22;9641;51.494;6.670;2024-03-23T16:43:25;8.00;99.90
19017;DHT22;9641;51.494;6.670;2024-03-23T16:45:57;7.70;99.90
19017;DHT22;9641;51.494;6.670;2024-03-23T16:48:27;7.20;99.90
19017;DHT22;9641;51.494;6.670;2024-03-23T16:50:56;6.90;99.90
19017;DHT22;9641;51.494;6.670;2024-03-23T16:53:23;6.40;99.90
19017;DHT22;9641;51.494;6.670;2024-03-23T16:55:54;6.00;99.90
19017;DHT22;9641;51.494;6.670;2024-03-23T16:58:23;5.80;99.90